Cord, Arkansas
Current Conditions -  °F | °C
As of 10:56 AM on Saturday 25 Oct 2014 (Local Time) from KM19 Reporting Station
Clear Clear  
Wind Chill: 25°   Ceiling: Unl
Heat Index: 26°   Visibility: 10mi
Dew Point: 17°   Wind: 6mph
Humidity: 62%   Direction: 270°W
Pressure: 30.1"   Gusts: NA
Location:  35.81°N, 91.34°W
Report Text: KM19 251556Z AUTO 27005KT 10SM CLR 25/17 A3010 RMK AO2 T02500172 SLP189
Loading
Personal Weather Stations






























Interactive Weather Map
Tropical Storm Tracking
New forecast layout! Learn more

10-Day Weather Forecast

Advertisements
Track Severe Weather on mobile